sensor_id;sensor_type;location;lat;lon;timestamp;P1;durP1;ratioP1;P2;durP2;ratioP2
35891;SDS011;21993;42.672;23.296;2022-11-03T00:01:39;9.40;;;5.10;;
35891;SDS011;21993;42.672;23.296;2022-11-03T00:04:06;8.53;;;4.63;;
35891;SDS011;21993;42.672;23.296;2022-11-03T00:06:34;9.60;;;4.50;;
35891;SDS011;21993;42.672;23.296;2022-11-03T00:09:01;9.27;;;4.33;;
35891;SDS011;21993;42.672;23.296;2022-11-03T00:11:31;11.37;;;4.60;;
35891;SDS011;21993;42.672;23.296;2022-11-03T00:13:58;12.57;;;5.07;;
35891;SDS011;21993;42.672;23.296;2022-11-03T00:16:24;12.33;;;4.40;;
35891;SDS011;21993;42.672;23.296;2022-11-03T00:18:50;13.57;;;4.80;;
35891;SDS011;21993;42.672;23.296;2022-11-03T00:21:16;8.73;;;5.07;;
35891;SDS011;21993;42.672;23.296;2022-11-03T00:23:42;9.33;;;4.10;;
35891;SDS011;21993;42.672;23.296;2022-11-03T00:26:09;12.80;;;4.90;;
35891;SDS011;21993;42.672;23.296;2022-11-03T00:28:37;7.87;;;4.93;;
35891;SDS011;21993;42.672;23.296;2022-11-03T00:31:14;8.37;;;4.97;;
35891;SDS011;21993;42.672;23.296;2022-11-03T00:33:41;11.33;;;4.80;;
35891;SDS011;21993;42.672;23.296;2022-11-03T00:36:08;6.43;;;4.50;;
35891;SDS011;21993;42.672;23.296;2022-11-03T00:38:36;9.97;;;5.03;;
35891;SDS011;21993;42.672;23.296;2022-11-03T00:41:02;13.20;;;5.10;;
35891;SDS011;21993;42.672;23.296;2022-11-03T00:43:30;8.23;;;4.77;;
35891;SDS011;21993;42.672;23.296;2022-11-03T00:45:57;9.13;;;4.70;;
35891;SDS011;21993;42.672;23.296;2022-11-03T00:48:22;7.67;;;5.23;;
35891;SDS011;21993;42.672;23.296;2022-11-03T00:51:02;8.23;;;4.77;;
35891;SDS011;21993;42.672;23.296;2022-11-03T00:53:28;7.80;;;4.97;;
35891;SDS011;21993;42.672;23.296;2022-11-03T00:55:54;7.17;;;4.73;;
35891;SDS011;21993;42.672;23.296;2022-11-03T00:58:20;8.77;;;4.87;;
35891;SDS011;21993;42.672;23.296;2022-11-03T01:00:45;6.67;;;4.50;;
35891;SDS011;21993;42.672;23.296;2022-11-03T01:03:11;7.60;;;5.40;;
35891;SDS011;21993;42.672;23.296;2022-11-03T01:05:39;12.20;;;5.30;;
35891;SDS011;21993;42.672;23.296;2022-11-03T01:08:24;8.27;;;5.37;;
35891;SDS011;21993;42.672;23.296;2022-11-03T01:10:49;12.87;;;5.30;;
35891;SDS011;21993;42.672;23.296;2022-11-03T01:13:33;11.23;;;5.47;;
35891;SDS011;21993;42.672;23.296;2022-11-03T01:15:59;12.93;;;5.70;;
35891;SDS011;21993;42.672;23.296;2022-11-03T01:18:24;9.80;;;5.93;;
35891;SDS011;21993;42.672;23.296;2022-11-03T01:20:56;10.43;;;5.90;;
35891;SDS011;21993;42.672;23.296;2022-11-03T01:23:25;12.30;;;6.40;;
35891;SDS011;21993;42.672;23.296;2022-11-03T01:25:50;11.43;;;5.73;;
35891;SDS011;21993;42.672;23.296;2022-11-03T01:28:15;14.53;;;6.13;;
35891;SDS011;21993;42.672;23.296;2022-11-03T01:30:41;12.43;;;5.77;;
35891;SDS011;21993;42.672;23.296;2022-11-03T01:33:06;14.03;;;5.30;;
35891;SDS011;21993;42.672;23.296;2022-11-03T01:35:31;7.30;;;5.70;;
35891;SDS011;21993;42.672;23.296;2022-11-03T01:37:57;12.67;;;5.67;;
35891;SDS011;21993;42.672;23.296;2022-11-03T01:40:23;12.37;;;5.80;;
35891;SDS011;21993;42.672;23.296;2022-11-03T01:42:48;9.87;;;5.20;;
35891;SDS011;21993;42.672;23.296;2022-11-03T01:45:14;9.27;;;5.77;;
35891;SDS011;21993;42.672;23.296;2022-11-03T01:47:39;12.07;;;6.33;;
35891;SDS011;21993;42.672;23.296;2022-11-03T01:50:10;12.10;;;5.93;;
35891;SDS011;21993;42.672;23.296;2022-11-03T01:52:45;13.40;;;6.33;;
35891;SDS011;21993;42.672;23.296;2022-11-03T01:55:23;10.90;;;6.70;;
35891;SDS011;21993;42.672;23.296;2022-11-03T01:57:53;13.73;;;6.63;;
35891;SDS011;21993;42.672;23.296;2022-11-03T02:00:24;12.90;;;7.47;;
35891;SDS011;21993;42.672;23.296;2022-11-03T02:02:50;12.30;;;7.13;;
35891;SDS011;21993;42.672;23.296;2022-11-03T02:05:15;12.93;;;7.73;;
35891;SDS011;21993;42.672;23.296;2022-11-03T02:10:17;16.77;;;8.00;;
35891;SDS011;21993;42.672;23.296;2022-11-03T02:12:44;15.07;;;8.83;;
35891;SDS011;21993;42.672;23.296;2022-11-03T02:15:13;15.97;;;9.07;;
35891;SDS011;21993;42.672;23.296;2022-11-03T02:17:41;13.80;;;8.33;;
35891;SDS011;21993;42.672;23.296;2022-11-03T02:20:14;14.13;;;8.53;;
35891;SDS011;21993;42.672;23.296;2022-11-03T02:25:36;14.43;;;8.10;;
35891;SDS011;21993;42.672;23.296;2022-11-03T02:28:02;15.50;;;8.00;;
35891;SDS011;21993;42.672;23.296;2022-11-03T02:35:54;12.53;;;8.67;;
35891;SDS011;21993;42.672;23.296;2022-11-03T02:38:31;15.77;;;9.03;;
35891;SDS011;21993;42.672;23.296;2022-11-03T02:41:02;16.13;;;8.27;;
35891;SDS011;21993;42.672;23.296;2022-11-03T02:43:32;13.37;;;8.53;;
35891;SDS011;21993;42.672;23.296;2022-11-03T02:45:58;18.57;;;8.33;;
35891;SDS011;21993;42.672;23.296;2022-11-03T02:48:24;14.53;;;8.10;;
35891;SDS011;21993;42.672;23.296;2022-11-03T02:50:50;17.63;;;8.73;;
35891;SDS011;21993;42.672;23.296;2022-11-03T02:53:15;14.73;;;8.40;;
35891;SDS011;21993;42.672;23.296;2022-11-03T02:55:52;12.77;;;8.50;;
35891;SDS011;21993;42.672;23.296;2022-11-03T02:58:36;12.67;;;7.70;;
35891;SDS011;21993;42.672;23.296;2022-11-03T03:01:16;17.53;;;7.97;;
35891;SDS011;21993;42.672;23.296;2022-11-03T03:04:05;15.37;;;8.00;;
35891;SDS011;21993;42.672;23.296;2022-11-03T03:06:41;12.77;;;7.67;;
35891;SDS011;21993;42.672;23.296;2022-11-03T03:09:12;10.93;;;7.53;;
35891;SDS011;21993;42.672;23.296;2022-11-03T03:11:43;14.07;;;7.37;;
35891;SDS011;21993;42.672;23.296;2022-11-03T03:14:17;10.43;;;6.67;;
35891;SDS011;21993;42.672;23.296;2022-11-03T03:21:48;15.53;;;6.93;;
35891;SDS011;21993;42.672;23.296;2022-11-03T03:24:27;13.70;;;7.20;;
35891;SDS011;21993;42.672;23.296;2022-11-03T03:27:00;12.13;;;7.00;;
35891;SDS011;21993;42.672;23.296;2022-11-03T03:29:33;15.50;;;7.30;;
35891;SDS011;21993;42.672;23.296;2022-11-03T03:32:05;15.73;;;8.23;;
35891;SDS011;21993;42.672;23.296;2022-11-03T03:34:33;9.63;;;7.00;;
35891;SDS011;21993;42.672;23.296;2022-11-03T03:37:03;11.33;;;7.27;;
35891;SDS011;21993;42.672;23.296;2022-11-03T03:39:32;11.37;;;6.80;;
35891;SDS011;21993;42.672;23.296;2022-11-03T03:42:01;9.23;;;6.93;;
35891;SDS011;21993;42.672;23.296;2022-11-03T03:44:29;13.90;;;6.80;;
35891;SDS011;21993;42.672;23.296;2022-11-03T03:47:00;11.20;;;7.40;;
35891;SDS011;21993;42.672;23.296;2022-11-03T03:49:31;16.70;;;7.77;;
35891;SDS011;21993;42.672;23.296;2022-11-03T03:51:56;14.43;;;7.73;;
35891;SDS011;21993;42.672;23.296;2022-11-03T03:54:22;14.07;;;7.33;;
35891;SDS011;21993;42.672;23.296;2022-11-03T03:56:52;12.67;;;7.47;;
35891;SDS011;21993;42.672;23.296;2022-11-03T03:59:27;11.97;;;7.30;;
35891;SDS011;21993;42.672;23.296;2022-11-03T04:01:52;15.07;;;8.40;;
35891;SDS011;21993;42.672;23.296;2022-11-03T04:04:18;14.53;;;7.30;;
35891;SDS011;21993;42.672;23.296;2022-11-03T04:06:43;13.13;;;7.87;;
35891;SDS011;21993;42.672;23.296;2022-11-03T04:09:09;13.20;;;7.40;;
35891;SDS011;21993;42.672;23.296;2022-11-03T04:11:34;17.60;;;8.23;;
35891;SDS011;21993;42.672;23.296;2022-11-03T04:14:18;15.90;;;9.07;;
35891;SDS011;21993;42.672;23.296;2022-11-03T04:17:02;16.43;;;7.50;;
35891;SDS011;21993;42.672;23.296;2022-11-03T04:19:46;16.07;;;8.90;;
35891;SDS011;21993;42.672;23.296;2022-11-03T04:22:30;14.47;;;7.80;;
35891;SDS011;21993;42.672;23.296;2022-11-03T04:24:57;17.43;;;8.20;;
35891;SDS011;21993;42.672;23.296;2022-11-03T04:32:41;14.77;;;8.07;;
35891;SDS011;21993;42.672;23.296;2022-11-03T04:35:18;13.23;;;8.03;;
35891;SDS011;21993;42.672;23.296;2022-11-03T04:37:55;14.30;;;8.43;;
35891;SDS011;21993;42.672;23.296;2022-11-03T04:40:25;19.00;;;9.30;;
35891;SDS011;21993;42.672;23.296;2022-11-03T04:42:51;15.80;;;8.60;;
35891;SDS011;21993;42.672;23.296;2022-11-03T04:47:48;17.53;;;8.80;;
35891;SDS011;21993;42.672;23.296;2022-11-03T04:50:16;16.80;;;8.63;;
35891;SDS011;21993;42.672;23.296;2022-11-03T04:52:43;15.07;;;8.10;;
35891;SDS011;21993;42.672;23.296;2022-11-03T04:55:12;21.07;;;8.60;;
35891;SDS011;21993;42.672;23.296;2022-11-03T04:57:39;16.90;;;10.00;;
35891;SDS011;21993;42.672;23.296;2022-11-03T05:00:05;20.10;;;10.03;;
35891;SDS011;21993;42.672;23.296;2022-11-03T05:02:31;16.00;;;8.50;;
35891;SDS011;21993;42.672;23.296;2022-11-03T05:04:57;16.53;;;8.83;;
35891;SDS011;21993;42.672;23.296;2022-11-03T05:07:33;19.13;;;9.10;;
35891;SDS011;21993;42.672;23.296;2022-11-03T05:10:00;21.43;;;10.03;;
35891;SDS011;21993;42.672;23.296;2022-11-03T05:12:27;20.50;;;9.90;;
35891;SDS011;21993;42.672;23.296;2022-11-03T05:14:54;18.73;;;9.80;;
35891;SDS011;21993;42.672;23.296;2022-11-03T05:17:23;26.27;;;11.00;;
35891;SDS011;21993;42.672;23.296;2022-11-03T05:19:51;19.97;;;9.83;;
35891;SDS011;21993;42.672;23.296;2022-11-03T05:22:21;17.60;;;9.83;;
35891;SDS011;21993;42.672;23.296;2022-11-03T05:24:53;21.73;;;10.27;;
35891;SDS011;21993;42.672;23.296;2022-11-03T05:27:21;33.83;;;11.90;;
35891;SDS011;21993;42.672;23.296;2022-11-03T05:29:48;24.30;;;11.40;;
35891;SDS011;21993;42.672;23.296;2022-11-03T05:32:23;25.57;;;11.20;;
35891;SDS011;21993;42.672;23.296;2022-11-03T05:34:52;26.83;;;11.97;;
35891;SDS011;21993;42.672;23.296;2022-11-03T05:37:26;26.40;;;11.63;;
35891;SDS011;21993;42.672;23.296;2022-11-03T05:39:54;19.53;;;10.50;;
35891;SDS011;21993;42.672;23.296;2022-11-03T05:45:06;26.90;;;12.30;;
35891;SDS011;21993;42.672;23.296;2022-11-03T05:47:46;21.53;;;11.90;;
35891;SDS011;21993;42.672;23.296;2022-11-03T05:50:27;31.93;;;16.17;;
35891;SDS011;21993;42.672;23.296;2022-11-03T05:52:58;33.80;;;14.67;;
35891;SDS011;21993;42.672;23.296;2022-11-03T05:55:32;68.03;;;32.10;;
35891;SDS011;21993;42.672;23.296;2022-11-03T05:58:01;57.87;;;26.33;;
35891;SDS011;21993;42.672;23.296;2022-11-03T06:00:36;32.50;;;16.87;;
35891;SDS011;21993;42.672;23.296;2022-11-03T06:03:04;36.83;;;16.23;;
35891;SDS011;21993;42.672;23.296;2022-11-03T06:05:30;33.10;;;13.57;;
35891;SDS011;21993;42.672;23.296;2022-11-03T06:07:59;20.87;;;12.13;;
35891;SDS011;21993;42.672;23.296;2022-11-03T06:10:30;21.80;;;12.30;;
35891;SDS011;21993;42.672;23.296;2022-11-03T06:13:00;31.80;;;14.10;;
35891;SDS011;21993;42.672;23.296;2022-11-03T06:15:29;21.70;;;11.80;;
35891;SDS011;21993;42.672;23.296;2022-11-03T06:17:57;26.87;;;12.47;;
35891;SDS011;21993;42.672;23.296;2022-11-03T06:20:24;19.47;;;12.10;;
35891;SDS011;21993;42.672;23.296;2022-11-03T06:22:51;21.87;;;12.40;;
35891;SDS011;21993;42.672;23.296;2022-11-03T06:25:26;23.97;;;13.47;;
35891;SDS011;21993;42.672;23.296;2022-11-03T06:27:54;22.73;;;12.07;;
35891;SDS011;21993;42.672;23.296;2022-11-03T06:32:53;33.50;;;18.17;;
35891;SDS011;21993;42.672;23.296;2022-11-03T06:35:22;28.83;;;18.40;;
35891;SDS011;21993;42.672;23.296;2022-11-03T06:37:48;31.00;;;17.80;;
35891;SDS011;21993;42.672;23.296;2022-11-03T06:42:39;27.93;;;16.73;;
35891;SDS011;21993;42.672;23.296;2022-11-03T06:45:13;24.63;;;15.23;;
35891;SDS011;21993;42.672;23.296;2022-11-03T06:47:44;25.87;;;14.30;;
35891;SDS011;21993;42.672;23.296;2022-11-03T06:50:30;23.07;;;13.63;;
35891;SDS011;21993;42.672;23.296;2022-11-03T06:52:56;25.07;;;13.63;;
35891;SDS011;21993;42.672;23.296;2022-11-03T07:00:53;34.30;;;15.73;;
35891;SDS011;21993;42.672;23.296;2022-11-03T07:06:10;27.47;;;13.83;;
35891;SDS011;21993;42.672;23.296;2022-11-03T07:11:18;28.30;;;13.87;;
35891;SDS011;21993;42.672;23.296;2022-11-03T07:13:52;30.13;;;14.23;;
35891;SDS011;21993;42.672;23.296;2022-11-03T07:22:12;29.40;;;15.70;;
35891;SDS011;21993;42.672;23.296;2022-11-03T07:24:50;25.70;;;15.17;;
35891;SDS011;21993;42.672;23.296;2022-11-03T07:29:47;22.23;;;14.00;;
35891;SDS011;21993;42.672;23.296;2022-11-03T07:32:15;32.03;;;15.73;;
35891;SDS011;21993;42.672;23.296;2022-11-03T07:34:43;28.80;;;16.07;;
35891;SDS011;21993;42.672;23.296;2022-11-03T07:37:14;26.23;;;15.37;;
35891;SDS011;21993;42.672;23.296;2022-11-03T07:39:48;25.90;;;13.50;;
35891;SDS011;21993;42.672;23.296;2022-11-03T07:42:18;23.33;;;13.47;;
35891;SDS011;21993;42.672;23.296;2022-11-03T07:44:48;26.10;;;13.80;;
35891;SDS011;21993;42.672;23.296;2022-11-03T07:47:23;23.47;;;13.00;;
35891;SDS011;21993;42.672;23.296;2022-11-03T07:49:51;24.80;;;13.17;;
35891;SDS011;21993;42.672;23.296;2022-11-03T07:52:21;21.40;;;12.43;;
35891;SDS011;21993;42.672;23.296;2022-11-03T07:54:49;25.97;;;13.53;;
35891;SDS011;21993;42.672;23.296;2022-11-03T08:00:04;24.73;;;12.93;;
35891;SDS011;21993;42.672;23.296;2022-11-03T08:02:33;25.73;;;12.93;;
35891;SDS011;21993;42.672;23.296;2022-11-03T08:05:02;23.60;;;12.57;;
35891;SDS011;21993;42.672;23.296;2022-11-03T08:07:28;22.70;;;12.70;;
35891;SDS011;21993;42.672;23.296;2022-11-03T08:09:54;20.30;;;12.23;;
35891;SDS011;21993;42.672;23.296;2022-11-03T08:12:20;29.87;;;13.20;;
35891;SDS011;21993;42.672;23.296;2022-11-03T08:14:45;26.03;;;13.37;;
35891;SDS011;21993;42.672;23.296;2022-11-03T08:17:11;17.37;;;11.13;;
35891;SDS011;21993;42.672;23.296;2022-11-03T08:19:38;25.57;;;12.73;;
35891;SDS011;21993;42.672;23.296;2022-11-03T08:22:03;20.23;;;11.60;;
35891;SDS011;21993;42.672;23.296;2022-11-03T08:24:29;20.47;;;12.07;;
35891;SDS011;21993;42.672;23.296;2022-11-03T08:26:55;21.90;;;12.80;;
35891;SDS011;21993;42.672;23.296;2022-11-03T08:29:20;27.27;;;14.13;;
35891;SDS011;21993;42.672;23.296;2022-11-03T08:31:46;30.10;;;12.53;;
35891;SDS011;21993;42.672;23.296;2022-11-03T08:34:11;20.17;;;12.00;;
35891;SDS011;21993;42.672;23.296;2022-11-03T08:36:37;21.67;;;13.03;;
35891;SDS011;21993;42.672;23.296;2022-11-03T08:39:02;20.63;;;12.80;;
35891;SDS011;21993;42.672;23.296;2022-11-03T08:41:28;25.60;;;13.10;;
35891;SDS011;21993;42.672;23.296;2022-11-03T08:43:54;24.43;;;13.67;;
35891;SDS011;21993;42.672;23.296;2022-11-03T08:46:20;25.27;;;12.77;;
35891;SDS011;21993;42.672;23.296;2022-11-03T08:48:45;24.73;;;13.33;;
35891;SDS011;21993;42.672;23.296;2022-11-03T08:51:11;21.20;;;12.50;;
35891;SDS011;21993;42.672;23.296;2022-11-03T08:53:37;25.90;;;12.83;;
35891;SDS011;21993;42.672;23.296;2022-11-03T08:56:04;19.97;;;12.37;;
35891;SDS011;21993;42.672;23.296;2022-11-03T08:58:30;23.10;;;12.37;;
35891;SDS011;21993;42.672;23.296;2022-11-03T09:00:56;21.80;;;12.87;;
35891;SDS011;21993;42.672;23.296;2022-11-03T09:03:22;23.83;;;12.70;;
35891;SDS011;21993;42.672;23.296;2022-11-03T09:05:47;23.07;;;12.10;;
35891;SDS011;21993;42.672;23.296;2022-11-03T09:08:12;23.93;;;12.53;;
35891;SDS011;21993;42.672;23.296;2022-11-03T09:10:38;22.73;;;11.97;;
35891;SDS011;21993;42.672;23.296;2022-11-03T09:13:03;23.67;;;12.00;;
35891;SDS011;21993;42.672;23.296;2022-11-03T09:15:29;22.43;;;12.70;;
35891;SDS011;21993;42.672;23.296;2022-11-03T09:17:55;23.83;;;11.17;;
35891;SDS011;21993;42.672;23.296;2022-11-03T09:20:21;23.93;;;12.63;;
35891;SDS011;21993;42.672;23.296;2022-11-03T09:22:46;27.47;;;12.63;;
35891;SDS011;21993;42.672;23.296;2022-11-03T09:25:11;25.33;;;13.03;;
35891;SDS011;21993;42.672;23.296;2022-11-03T09:27:37;20.87;;;11.43;;
35891;SDS011;21993;42.672;23.296;2022-11-03T09:30:03;22.73;;;11.90;;
35891;SDS011;21993;42.672;23.296;2022-11-03T09:32:29;24.93;;;12.37;;
35891;SDS011;21993;42.672;23.296;2022-11-03T09:34:55;28.67;;;15.20;;
35891;SDS011;21993;42.672;23.296;2022-11-03T09:37:20;24.03;;;12.13;;
35891;SDS011;21993;42.672;23.296;2022-11-03T09:39:46;20.47;;;11.63;;
35891;SDS011;21993;42.672;23.296;2022-11-03T09:42:12;22.10;;;12.27;;
35891;SDS011;21993;42.672;23.296;2022-11-03T09:44:38;20.93;;;12.00;;
35891;SDS011;21993;42.672;23.296;2022-11-03T09:47:04;21.73;;;11.33;;
35891;SDS011;21993;42.672;23.296;2022-11-03T09:49:31;32.30;;;10.83;;
35891;SDS011;21993;42.672;23.296;2022-11-03T09:51:58;21.60;;;9.93;;
35891;SDS011;21993;42.672;23.296;2022-11-03T09:54:26;19.17;;;10.30;;
35891;SDS011;21993;42.672;23.296;2022-11-03T09:56:52;19.17;;;11.00;;
35891;SDS011;21993;42.672;23.296;2022-11-03T09:59:18;19.27;;;10.80;;
35891;SDS011;21993;42.672;23.296;2022-11-03T10:01:46;19.63;;;9.90;;
35891;SDS011;21993;42.672;23.296;2022-11-03T10:04:14;18.33;;;10.67;;
35891;SDS011;21993;42.672;23.296;2022-11-03T10:06:40;15.30;;;9.33;;
35891;SDS011;21993;42.672;23.296;2022-11-03T10:09:08;21.17;;;9.93;;
35891;SDS011;21993;42.672;23.296;2022-11-03T10:11:39;23.03;;;10.20;;
35891;SDS011;21993;42.672;23.296;2022-11-03T10:14:04;21.53;;;10.17;;
35891;SDS011;21993;42.672;23.296;2022-11-03T10:16:36;22.40;;;10.33;;
35891;SDS011;21993;42.672;23.296;2022-11-03T10:19:03;21.60;;;10.20;;
35891;SDS011;21993;42.672;23.296;2022-11-03T10:21:29;17.63;;;9.80;;
35891;SDS011;21993;42.672;23.296;2022-11-03T10:23:55;18.23;;;9.00;;
35891;SDS011;21993;42.672;23.296;2022-11-03T10:26:21;20.03;;;8.50;;
35891;SDS011;21993;42.672;23.296;2022-11-03T10:31:23;15.43;;;8.30;;
35891;SDS011;21993;42.672;23.296;2022-11-03T10:33:56;15.30;;;9.03;;
35891;SDS011;21993;42.672;23.296;2022-11-03T10:36:23;15.80;;;8.47;;
35891;SDS011;21993;42.672;23.296;2022-11-03T10:38:49;14.57;;;8.47;;
35891;SDS011;21993;42.672;23.296;2022-11-03T10:41:16;17.13;;;9.40;;
35891;SDS011;21993;42.672;23.296;2022-11-03T10:46:24;17.63;;;8.00;;
35891;SDS011;21993;42.672;23.296;2022-11-03T10:51:52;17.80;;;7.93;;
35891;SDS011;21993;42.672;23.296;2022-11-03T10:54:20;15.63;;;7.70;;
35891;SDS011;21993;42.672;23.296;2022-11-03T10:56:47;14.17;;;7.20;;
35891;SDS011;21993;42.672;23.296;2022-11-03T10:59:21;13.07;;;7.40;;
35891;SDS011;21993;42.672;23.296;2022-11-03T11:01:51;18.70;;;7.57;;
35891;SDS011;21993;42.672;23.296;2022-11-03T11:04:17;13.37;;;7.90;;
35891;SDS011;21993;42.672;23.296;2022-11-03T11:06:44;12.17;;;7.10;;
35891;SDS011;21993;42.672;23.296;2022-11-03T11:09:12;22.20;;;8.30;;
35891;SDS011;21993;42.672;23.296;2022-11-03T11:16:59;14.50;;;7.30;;
35891;SDS011;21993;42.672;23.296;2022-11-03T11:19:26;15.33;;;7.50;;
35891;SDS011;21993;42.672;23.296;2022-11-03T11:35:09;13.53;;;6.47;;
35891;SDS011;21993;42.672;23.296;2022-11-03T11:37:39;11.90;;;6.70;;
35891;SDS011;21993;42.672;23.296;2022-11-03T11:40:50;16.83;;;6.97;;
35891;SDS011;21993;42.672;23.296;2022-11-03T11:48:38;12.87;;;5.67;;
35891;SDS011;21993;42.672;23.296;2022-11-03T11:51:08;16.33;;;6.87;;
35891;SDS011;21993;42.672;23.296;2022-11-03T11:53:38;12.43;;;5.67;;
35891;SDS011;21993;42.672;23.296;2022-11-03T11:56:08;16.40;;;5.17;;
35891;SDS011;21993;42.672;23.296;2022-11-03T12:03:46;16.17;;;6.20;;
35891;SDS011;21993;42.672;23.296;2022-11-03T12:06:12;13.40;;;6.13;;
35891;SDS011;21993;42.672;23.296;2022-11-03T12:08:38;13.03;;;5.03;;
35891;SDS011;21993;42.672;23.296;2022-11-03T12:11:04;8.17;;;4.83;;
35891;SDS011;21993;42.672;23.296;2022-11-03T12:13:44;16.13;;;5.03;;
35891;SDS011;21993;42.672;23.296;2022-11-03T12:16:28;14.30;;;5.30;;
35891;SDS011;21993;42.672;23.296;2022-11-03T12:18:55;15.03;;;6.37;;
35891;SDS011;21993;42.672;23.296;2022-11-03T12:24:56;16.50;;;6.33;;
35891;SDS011;21993;42.672;23.296;2022-11-03T12:26:56;11.03;;;4.63;;
35891;SDS011;21993;42.672;23.296;2022-11-03T12:29:22;11.93;;;5.60;;
35891;SDS011;21993;42.672;23.296;2022-11-03T12:31:48;11.27;;;5.40;;
35891;SDS011;21993;42.672;23.296;2022-11-03T12:34:14;11.63;;;4.93;;
35891;SDS011;21993;42.672;23.296;2022-11-03T12:36:40;13.37;;;5.90;;
35891;SDS011;21993;42.672;23.296;2022-11-03T12:39:06;10.03;;;5.60;;
35891;SDS011;21993;42.672;23.296;2022-11-03T12:41:31;16.93;;;4.80;;
35891;SDS011;21993;42.672;23.296;2022-11-03T12:43:57;16.03;;;4.93;;
35891;SDS011;21993;42.672;23.296;2022-11-03T12:46:22;12.23;;;5.37;;
35891;SDS011;21993;42.672;23.296;2022-11-03T12:48:48;19.97;;;5.30;;
35891;SDS011;21993;42.672;23.296;2022-11-03T12:51:17;11.40;;;4.67;;
35891;SDS011;21993;42.672;23.296;2022-11-03T12:53:44;13.03;;;5.20;;
35891;SDS011;21993;42.672;23.296;2022-11-03T12:56:10;17.50;;;5.83;;
35891;SDS011;21993;42.672;23.296;2022-11-03T12:58:37;11.07;;;5.20;;
35891;SDS011;21993;42.672;23.296;2022-11-03T13:01:03;23.20;;;5.97;;
35891;SDS011;21993;42.672;23.296;2022-11-03T13:03:29;13.93;;;5.40;;
35891;SDS011;21993;42.672;23.296;2022-11-03T13:05:56;16.23;;;5.10;;
35891;SDS011;21993;42.672;23.296;2022-11-03T13:08:22;16.60;;;5.33;;
35891;SDS011;21993;42.672;23.296;2022-11-03T13:10:48;16.70;;;7.33;;
35891;SDS011;21993;42.672;23.296;2022-11-03T13:13:14;9.87;;;5.80;;
35891;SDS011;21993;42.672;23.296;2022-11-03T13:15:40;15.67;;;7.03;;
35891;SDS011;21993;42.672;23.296;2022-11-03T13:18:05;14.97;;;5.87;;
35891;SDS011;21993;42.672;23.296;2022-11-03T13:20:31;13.87;;;5.70;;
35891;SDS011;21993;42.672;23.296;2022-11-03T13:22:56;11.23;;;5.60;;
35891;SDS011;21993;42.672;23.296;2022-11-03T13:25:22;13.67;;;5.97;;
35891;SDS011;21993;42.672;23.296;2022-11-03T13:27:48;31.27;;;7.40;;
35891;SDS011;21993;42.672;23.296;2022-11-03T13:30:17;27.27;;;6.90;;
35891;SDS011;21993;42.672;23.296;2022-11-03T13:32:43;40.33;;;8.93;;
35891;SDS011;21993;42.672;23.296;2022-11-03T13:35:09;39.23;;;9.60;;
35891;SDS011;21993;42.672;23.296;2022-11-03T13:37:34;22.80;;;5.97;;
35891;SDS011;21993;42.672;23.296;2022-11-03T13:39:59;21.60;;;5.87;;
35891;SDS011;21993;42.672;23.296;2022-11-03T13:42:25;15.85;;;5.55;;
35891;SDS011;21993;42.672;23.296;2022-11-03T13:44:50;15.20;;;6.00;;
35891;SDS011;21993;42.672;23.296;2022-11-03T13:47:16;15.80;;;5.50;;
35891;SDS011;21993;42.672;23.296;2022-11-03T13:49:41;10.70;;;6.10;;
35891;SDS011;21993;42.672;23.296;2022-11-03T13:52:07;24.37;;;6.40;;
35891;SDS011;21993;42.672;23.296;2022-11-03T13:54:32;16.50;;;7.30;;
35891;SDS011;21993;42.672;23.296;2022-11-03T13:56:58;17.67;;;6.13;;
35891;SDS011;21993;42.672;23.296;2022-11-03T13:59:23;17.27;;;6.50;;
35891;SDS011;21993;42.672;23.296;2022-11-03T14:01:49;14.33;;;6.53;;
35891;SDS011;21993;42.672;23.296;2022-11-03T14:04:14;19.20;;;7.67;;
35891;SDS011;21993;42.672;23.296;2022-11-03T14:06:40;26.50;;;7.23;;
35891;SDS011;21993;42.672;23.296;2022-11-03T14:09:05;17.90;;;6.70;;
35891;SDS011;21993;42.672;23.296;2022-11-03T14:11:31;14.70;;;5.50;;
35891;SDS011;21993;42.672;23.296;2022-11-03T14:14:15;18.37;;;6.03;;
35891;SDS011;21993;42.672;23.296;2022-11-03T14:16:40;17.80;;;6.03;;
35891;SDS011;21993;42.672;23.296;2022-11-03T14:19:06;11.67;;;5.40;;
35891;SDS011;21993;42.672;23.296;2022-11-03T14:21:31;16.87;;;6.60;;
35891;SDS011;21993;42.672;23.296;2022-11-03T14:23:57;19.97;;;6.27;;
35891;SDS011;21993;42.672;23.296;2022-11-03T14:26:22;17.83;;;5.87;;
35891;SDS011;21993;42.672;23.296;2022-11-03T14:28:48;15.77;;;5.83;;
35891;SDS011;21993;42.672;23.296;2022-11-03T14:31:13;16.13;;;5.80;;
35891;SDS011;21993;42.672;23.296;2022-11-03T14:33:39;15.30;;;6.27;;
35891;SDS011;21993;42.672;23.296;2022-11-03T14:36:04;15.07;;;6.40;;
35891;SDS011;21993;42.672;23.296;2022-11-03T14:38:30;11.13;;;5.60;;
35891;SDS011;21993;42.672;23.296;2022-11-03T14:40:55;15.10;;;5.60;;
35891;SDS011;21993;42.672;23.296;2022-11-03T14:43:39;18.77;;;6.47;;
35891;SDS011;21993;42.672;23.296;2022-11-03T14:46:05;23.73;;;6.67;;
35891;SDS011;21993;42.672;23.296;2022-11-03T14:48:30;21.47;;;6.50;;
35891;SDS011;21993;42.672;23.296;2022-11-03T14:50:56;20.43;;;6.77;;
35891;SDS011;21993;42.672;23.296;2022-11-03T14:53:21;19.70;;;6.10;;
35891;SDS011;21993;42.672;23.296;2022-11-03T14:55:47;18.60;;;7.63;;
35891;SDS011;21993;42.672;23.296;2022-11-03T14:58:12;21.30;;;7.73;;
35891;SDS011;21993;42.672;23.296;2022-11-03T15:00:37;22.83;;;6.87;;
35891;SDS011;21993;42.672;23.296;2022-11-03T15:03:03;25.77;;;7.33;;
35891;SDS011;21993;42.672;23.296;2022-11-03T15:05:29;20.20;;;7.67;;
35891;SDS011;21993;42.672;23.296;2022-11-03T15:08:10;16.43;;;7.30;;
35891;SDS011;21993;42.672;23.296;2022-11-03T15:10:37;20.50;;;8.40;;
35891;SDS011;21993;42.672;23.296;2022-11-03T15:13:05;23.10;;;7.83;;
35891;SDS011;21993;42.672;23.296;2022-11-03T15:15:31;27.87;;;9.47;;
35891;SDS011;21993;42.672;23.296;2022-11-03T15:17:56;25.93;;;9.90;;
35891;SDS011;21993;42.672;23.296;2022-11-03T15:20:22;23.80;;;9.87;;
35891;SDS011;21993;42.672;23.296;2022-11-03T15:22:47;27.83;;;9.17;;
35891;SDS011;21993;42.672;23.296;2022-11-03T15:25:13;29.83;;;9.13;;
35891;SDS011;21993;42.672;23.296;2022-11-03T15:27:38;22.50;;;9.17;;
35891;SDS011;21993;42.672;23.296;2022-11-03T15:30:07;22.10;;;9.80;;
35891;SDS011;21993;42.672;23.296;2022-11-03T15:32:33;24.33;;;8.70;;
35891;SDS011;21993;42.672;23.296;2022-11-03T15:34:58;21.80;;;8.60;;
35891;SDS011;21993;42.672;23.296;2022-11-03T15:37:24;30.17;;;9.03;;
35891;SDS011;21993;42.672;23.296;2022-11-03T15:39:49;28.10;;;9.27;;
35891;SDS011;21993;42.672;23.296;2022-11-03T15:42:15;26.07;;;8.57;;
35891;SDS011;21993;42.672;23.296;2022-11-03T15:44:41;27.47;;;9.57;;
35891;SDS011;21993;42.672;23.296;2022-11-03T15:47:06;23.90;;;8.77;;
35891;SDS011;21993;42.672;23.296;2022-11-03T15:49:32;28.93;;;9.37;;
35891;SDS011;21993;42.672;23.296;2022-11-03T15:51:57;21.27;;;9.87;;
35891;SDS011;21993;42.672;23.296;2022-11-03T15:54:22;23.87;;;8.67;;
35891;SDS011;21993;42.672;23.296;2022-11-03T15:56:48;24.30;;;9.17;;
35891;SDS011;21993;42.672;23.296;2022-11-03T15:59:14;24.63;;;8.97;;